Latest Weather Observations for Gosford

IDN60801

Issued at 8:35 pm EDT Sunday 23 November 2014 (issued every 30 minutes, with the page automatically refreshed every 10 minutes)

About weather observations | Map of weather stations | Latest weather observations for NSW | Other Formats
Station Details ID: 061425 Name: GOSFORD AWS Lat: -33.44 Lon: 151.36 Height: 7.0 m
Data from the previous 72 hours. | See also: Recent months at Gosford
Date/Time
EDT
Temp
°C
App
Temp
°C
Dew
Point
Rel
Hum
%
Delta-T
°C
Wind Press
QNH
hPa
Press
MSL
hPa
Rain
since 9 am
mm
Dir
 
Spd
km/h
Gust
km/h
Spd
kts
Gust
kts
23/08:30pm 22.4 21.7 20.3 88 1.4 SSW 24 43 13 23 - - 0.4
23/08:00pm 23.6 23.8 20.1 81 2.3 S 19 30 10 16 - - 0.4
23/07:36pm 25.1 23.3 19.5 71 3.6 SSW 28 48 15 26 - - 0.4
23/07:30pm 28.7 27.9 18.5 54 6.5 SSW 20 30 11 16 - - 0.4
23/07:00pm 31.9 30.9 14.5 34 10.6 N 13 24 7 13 - - 0.4
23/06:30pm 31.9 30.8 15.4 37 10.2 NE 15 28 8 15 - - 0.4
23/06:00pm 29.1 30.0 18.5 52 6.8 ENE 11 24 6 13 - - 0.4
23/05:30pm 28.9 28.9 18.1 52 6.9 N 15 26 8 14 - - 0.4
23/05:00pm 29.3 28.3 19.6 56 6.3 WSW 24 44 13 24 - - 0.0
23/04:56pm 30.3 27.6 19.3 51 7.2 W 32 44 17 24 - - 0.0
23/04:30pm 28.9 32.0 21.1 62 5.2 WSW 6 9 3 5 - - 0.0
23/04:00pm 28.9 30.4 20.6 61 5.5 ESE 13 20 7 11 - - 0.0
23/03:30pm 30.8 32.5 21.0 56 6.5 E 13 20 7 11 - - 0.0
23/03:00pm 32.0 33.6 21.5 53 7.1 E 15 22 8 12 - - 0.0
23/02:30pm 30.4 31.5 21.2 58 6.2 E 17 24 9 13 - - 0.0
23/02:00pm 30.4 32.0 21.5 59 6.0 E 15 22 8 12 - - 0.0
23/01:30pm 29.0 29.7 20.4 59 5.7 E 17 24 9 13 - - 0.0
23/01:00pm 30.2 31.7 21.3 59 6.0 ESE 15 22 8 12 - - 0.0
23/12:30pm 30.3 32.6 21.4 59 6.0 ESE 11 19 6 10 - - 0.0
23/12:00pm 30.4 32.6 21.2 58 6.2 E 11 15 6 8 - - 0.0
23/11:30am 29.4 31.9 21.1 61 5.5 E 9 11 5 6 - - 0.0
23/11:00am 28.2 30.1 20.5 63 5.1 ESE 11 17 6 9 - - 0.0
23/10:30am 28.4 30.8 20.9 64 5.0 E 9 15 5 8 - - 0.0
23/10:00am 27.9 30.1 20.5 64 4.9 E 9 13 5 7 - - 0.0
23/09:30am 27.2 29.7 19.8 64 4.8 ESE 6 9 3 5 - - 0.0
23/09:00am 26.2 28.7 19.8 68 4.2 ESE 6 9 3 5 - - 0.0
23/08:30am 24.6 27.6 19.2 72 3.5 E 2 6 1 3 - - 0.0
23/08:00am 21.8 23.9 18.0 79 2.4 SSE 4 6 2 3 - - 0.0
23/07:30am 21.4 23.9 18.2 82 2.0 SSW 2 6 1 3 - - 0.0
23/07:00am 19.7 22.2 18.2 91 0.9 NW 2 4 1 2 - - 0.0
23/06:30am 19.2 21.3 18.0 93 0.7 W 4 6 2 3 - - 0.0
23/06:00am 19.1 21.5 17.9 93 0.7 N 2 6 1 3 - - 0.0
23/05:30am 19.3 21.7 18.0 92 0.8 WNW 2 6 1 3 - - 0.0
23/05:00am 19.7 22.6 18.2 91 0.9 CALM 0 0 0 0 - - 0.0
23/04:30am 19.8 22.0 18.3 91 0.9 NW 4 6 2 3 - - 0.0
23/04:00am 19.9 22.5 18.4 91 0.9 ENE 2 4 1 2 - - 0.0
23/03:30am 20.0 22.3 18.5 91 0.9 NNE 4 6 2 3 - - 0.0
23/03:00am 20.1 23.0 18.2 89 1.2 CALM 0 0 0 0 - - 0.0
23/02:30am 20.4 22.8 18.7 90 1.1 NE 4 6 2 3 - - 0.0
23/02:00am 20.5 23.2 18.6 89 1.2 N 2 6 1 3 - - 0.0
23/01:30am 20.6 23.6 18.5 88 1.3 CALM 0 2 0 1 - - 0.0
23/01:00am 20.7 23.0 18.6 88 1.3 N 4 11 2 6 - - 0.0
23/12:30am 20.9 22.9 18.8 88 1.3 N 6 9 3 5 - - 0.0
23/12:00am 21.0 23.4 18.8 87 1.4 N 4 9 2 5 - - 0.0
 
Date/Time
EDT
Temp
°C
App
Temp
°C
Dew
Point
Rel
Hum
%
Delta-T
°C
Wind Press
QNH
hPa
Press
MSL
hPa
Rain
since 9 am
mm
Dir
 
Spd
km/h
Gust
km/h
Spd
kts
Gust
kts
22/11:30pm 21.1 23.6 19.0 88 1.3 ENE 4 9 2 5 - - 0.0
22/11:00pm 21.1 24.0 19.0 88 1.3 ENE 2 4 1 2 - - 0.0
22/10:30pm 21.0 23.4 18.8 87 1.4 ENE 4 6 2 3 - - 0.0
22/10:00pm 21.0 23.4 18.8 87 1.4 E 4 6 2 3 - - 0.0
22/09:30pm 21.0 23.8 18.8 87 1.4 ENE 2 7 1 4 - - 0.0
22/09:00pm 20.9 22.7 18.7 87 1.4 NE 7 11 4 6 - - 0.0
22/08:30pm 20.8 22.5 18.6 87 1.4 ENE 7 13 4 7 - - 0.0
22/08:00pm 20.8 21.6 18.2 85 1.6 ENE 11 17 6 9 - - 0.0
22/07:30pm 21.0 22.6 18.2 84 1.7 E 7 13 4 7 - - 0.0
22/07:00pm 21.1 22.2 18.1 83 1.9 E 9 15 5 8 - - 0.0
22/06:30pm 21.1 21.8 17.9 82 2.0 ENE 11 17 6 9 - - 0.0
22/06:00pm 21.2 21.4 17.6 80 2.2 E 13 20 7 11 - - 0.0
22/05:30pm 21.8 21.6 17.6 77 2.6 E 15 22 8 12 - - 0.0
22/05:00pm 22.8 22.5 17.3 71 3.4 E 15 26 8 14 - - 0.0
22/04:30pm 23.5 23.4 17.0 67 4.0 E 13 22 7 12 - - 0.0
22/04:00pm 23.5 22.8 16.3 64 4.4 ESE 15 24 8 13 - - 0.0
22/03:30pm 23.8 22.8 16.6 64 4.4 ENE 17 24 9 13 - - 0.0
22/03:00pm 24.4 24.1 16.4 61 4.9 E 13 19 7 10 - - 0.0
22/02:30pm 24.5 24.1 16.2 60 5.1 E 13 17 7 9 - - 0.0
22/02:00pm 24.8 24.1 16.5 60 5.1 E 15 24 8 13 - - 0.0
22/01:30pm 25.7 25.7 17.1 59 5.3 E 13 20 7 11 - - 0.0
22/01:00pm 27.5 28.7 17.4 54 6.3 SSE 7 11 4 6 - - 0.0
22/12:30pm 27.1 28.6 16.7 53 6.5 WSW 4 9 2 5 - - 0.0
22/12:00pm 26.0 26.6 16.8 57 5.7 ENE 9 17 5 9 - - 0.0
22/11:30am 23.6 24.0 15.4 60 4.9 S 7 13 4 7 - - 0.0
22/11:00am 23.6 23.7 15.4 60 4.9 S 9 11 5 6 - - 0.0
22/10:30am 22.7 22.9 14.8 61 4.7 S 7 11 4 6 - - 0.0
22/10:00am 21.7 21.9 14.6 64 4.2 S 7 13 4 7 - - 0.0
22/09:30am 21.4 21.7 15.0 67 3.8 SSW 7 13 4 7 - - 0.0
22/09:00am 21.3 22.2 15.2 68 3.6 SSE 4 9 2 5 - - 0.0
22/08:30am 20.7 20.8 14.4 67 3.7 S 7 13 4 7 - - 0.0
22/08:00am 20.3 19.7 14.7 70 3.3 S 11 19 6 10 - - 0.0
22/07:30am 20.3 20.4 15.5 74 2.8 S 9 13 5 7 - - 0.0
22/07:00am 19.9 19.7 14.7 72 3.0 S 9 13 5 7 - - 0.0
22/06:30am 19.9 20.0 15.5 76 2.6 S 9 15 5 8 - - 0.0
22/06:00am 19.8 19.2 15.7 77 2.4 S 13 22 7 12 - - 0.0
22/05:30am 19.6 18.9 15.5 77 2.4 S 13 19 7 10 - - 0.0
22/05:00am 19.8 18.9 15.9 78 2.3 S 15 22 8 12 - - 0.0
22/04:30am 20.0 19.5 16.0 78 2.4 S 13 20 7 11 - - 0.0
22/04:00am 20.0 19.2 16.0 78 2.4 S 15 22 8 12 - - 0.0
22/03:30am 20.1 19.1 15.7 76 2.6 S 15 26 8 14 - - 0.0
22/03:00am 20.2 19.4 16.0 77 2.5 S 15 22 8 12 - - 0.0
22/02:30am 20.2 19.0 16.0 77 2.5 S 17 30 9 16 - - 0.0
22/02:00am 20.5 19.9 16.7 79 2.3 S 15 24 8 13 - - 0.0
22/01:30am 20.5 19.1 16.5 78 2.4 S 19 30 10 16 - - 0.0
22/01:00am 20.6 19.1 16.4 77 2.5 S 19 28 10 15 - - 0.0
22/12:30am 21.0 19.9 17.2 79 2.3 SSW 19 30 10 16 - - 0.0
22/12:00am 21.0 19.4 17.4 80 2.2 S 22 39 12 21 - - 0.0
 
Date/Time
EDT
Temp
°C
App
Temp
°C
Dew
Point
Rel
Hum
%
Delta-T
°C
Wind Press
QNH
hPa
Press
MSL
hPa
Rain
since 9 am
mm
Dir
 
Spd
km/h
Gust
km/h
Spd
kts
Gust
kts
21/11:30pm 21.3 20.5 17.9 81 2.1 S 19 37 10 20 - - 0.0
21/11:00pm 21.4 20.0 18.0 81 2.1 SSW 22 37 12 20 - - 0.0
21/10:30pm 21.6 21.3 18.2 81 2.1 SSW 17 32 9 17 - - 0.0
21/10:00pm 21.7 20.8 18.1 80 2.2 SSW 20 32 11 17 - - 0.0
21/09:30pm 21.9 20.5 17.9 78 2.5 SSW 22 35 12 19 - - 0.0
21/09:00pm 21.9 21.0 18.1 79 2.4 SSW 20 43 11 23 - - 0.0
21/08:30pm 22.2 21.7 19.0 82 2.0 SSW 20 33 11 18 - - 0.0
21/08:00pm 22.6 22.5 19.9 85 1.7 SSW 20 39 11 21 - - 0.0
21/07:30pm 23.3 22.5 20.1 82 2.1 S 24 37 13 20 - - 0.0
21/07:00pm 24.7 24.7 19.8 74 3.2 S 19 30 10 16 - - 0.0
21/06:30pm 27.0 28.4 20.3 66 4.4 SW 13 20 7 11 - - 0.0
21/06:00pm 29.5 31.7 19.5 55 6.5 SSW 7 20 4 11 - - 0.0
21/05:30pm 30.7 33.1 19.7 52 7.2 ESE 6 9 3 5 - - 0.0
21/05:00pm 29.8 32.2 20.1 56 6.4 ESE 7 15 4 8 - - 0.0
21/04:30pm 29.3 30.8 19.0 53 6.7 ESE 9 17 5 9 - - 0.0
21/04:00pm 30.4 32.3 19.7 52 7.0 E 9 17 5 9 - - 0.0
21/03:30pm 30.2 30.4 19.3 52 7.1 E 17 24 9 13 - - 0.0
21/03:00pm 31.6 30.9 18.6 46 8.4 E 20 30 11 16 - - 0.0
21/02:55pm 34.1 32.5 16.5 35 11.2 E 20 26 11 14 - - 0.0
21/02:30pm 39.6 35.5 6.1 13 18.7 W 17 33 9 18 - - 0.0
21/02:00pm 38.4 34.3 6.2 14 17.9 W 17 28 9 15 - - 0.0
21/01:30pm 38.0 32.7 4.8 13 18.0 WNW 22 35 12 19 - - 0.0
21/01:00pm 37.4 32.8 6.4 15 17.2 W 20 28 11 15 - - 0.0
21/12:30pm 37.5 35.1 10.0 19 16.1 NW 13 20 7 11 - - 0.0
21/12:00pm 37.6 35.2 11.5 21 15.6 WNW 15 35 8 19 - - 0.0
21/11:30am 36.5 34.7 13.3 25 14.2 WNW 15 32 8 17 - - 0.0
21/11:00am 35.8 34.0 13.3 26 13.7 NW 15 28 8 15 - - 0.0
21/10:30am 34.6 32.3 14.0 29 12.6 NNW 19 33 10 18 - - 0.0
21/10:00am 33.7 30.5 14.2 30 11.9 NNW 24 35 13 19 - - 0.0
21/09:30am 33.5 31.2 14.0 30 11.9 WNW 19 32 10 17 - - 0.0
21/09:00am 32.9 32.5 13.0 30 11.9 WNW 7 17 4 9 - - 0.0
21/08:30am 31.4 30.6 11.2 29 11.7 N 6 15 3 8 - - 0.0
21/08:00am 28.9 30.6 15.1 43 8.4 CALM 0 2 0 1 - - 0.0
21/07:30am 26.6 28.1 17.7 58 5.6 NW 6 11 3 6 - - 0.0
21/07:00am 24.9 24.7 14.7 53 6.1 N 9 17 5 9 - - 0.0
21/06:30am 22.1 23.4 17.2 74 3.0 NNE 6 7 3 4 - - 0.0
21/06:00am 22.9 24.1 17.4 71 3.4 N 7 13 4 7 - - 0.0
21/05:30am 22.8 24.3 18.1 75 2.9 WNW 7 20 4 11 - - 0.0
21/05:00am 19.4 22.3 18.1 92 0.8 CALM 0 0 0 0 - - 0.0
21/04:30am 19.7 22.7 18.4 92 0.8 CALM 0 0 0 0 - - 0.0
21/04:00am 19.7 22.7 18.5 93 0.7 CALM 0 0 0 0 - - 0.0
21/03:30am 19.6 22.5 18.3 92 0.8 CALM 0 0 0 0 - - 0.0
21/03:00am 19.8 22.7 18.3 91 0.9 CALM 0 0 0 0 - - 0.0
21/02:30am 20.1 23.2 18.6 91 0.9 CALM 0 0 0 0 - - 0.0
21/02:00am 20.4 23.5 18.7 90 1.1 CALM 0 0 0 0 - - 0.0
21/01:30am 20.6 23.8 18.9 90 1.1 CALM 0 0 0 0 - - 0.0
21/01:00am 21.0 24.2 18.9 88 1.3 CALM 0 0 0 0 - - 0.0
21/12:30am 21.3 24.6 19.0 87 1.5 CALM 0 0 0 0 - - 0.0
21/12:00am 21.6 24.9 19.0 85 1.6 CALM 0 0 0 0 - - 0.0
 
Date/Time
EDT
Temp
°C
App
Temp
°C
Dew
Point
Rel
Hum
%
Delta-T
°C
Wind Press
QNH
hPa
Press
MSL
hPa
Rain
since 9 am
mm
Dir
 
Spd
km/h
Gust
km/h
Spd
kts
Gust
kts
20/11:30pm 22.0 25.4 19.4 85 1.7 CALM 0 0 0 0 - - 0.0
20/11:00pm 22.4 25.5 19.6 84 1.8 NW 2 4 1 2 - - 0.0
20/10:30pm 22.6 25.7 19.4 82 2.0 ESE 2 6 1 3 - - 0.0
20/10:00pm 23.0 25.8 19.6 81 2.2 NE 4 7 2 4 - - 0.0
20/09:30pm 23.3 25.5 19.2 78 2.6 ENE 6 9 3 5 - - 0.0
20/09:00pm 24.4 27.0 19.2 73 3.3 E 4 7 2 4 - - 0.0

Other Formats:

Comma delimited format used in spreadsheet applications
http://www.bom.gov.au/fwo/IDN60801/IDN60801.94782.axf

JavaScript Object Notation format (JSON) in row-major order
http://www.bom.gov.au/fwo/IDN60801/IDN60801.94782.json